sensor_id;sensor_type;location;lat;lon;timestamp;temperature;humidity
37446;DHT22;23307;51.136;14.942;2023-02-01T00:01:47;5.40;99.90
37446;DHT22;23307;51.136;14.942;2023-02-01T00:04:13;5.40;99.90
37446;DHT22;23307;51.136;14.942;2023-02-01T00:06:38;5.40;99.90
37446;DHT22;23307;51.136;14.942;2023-02-01T00:09:04;5.40;99.90
37446;DHT22;23307;51.136;14.942;2023-02-01T00:11:29;5.40;99.90
37446;DHT22;23307;51.136;14.942;2023-02-01T00:13:56;5.40;99.90
37446;DHT22;23307;51.136;14.942;2023-02-01T00:16:24;5.40;99.90
37446;DHT22;23307;51.136;14.942;2023-02-01T00:18:51;5.40;99.90
37446;DHT22;23307;51.136;14.942;2023-02-01T00:21:19;5.40;99.90
37446;DHT22;23307;51.136;14.942;2023-02-01T00:23:46;5.40;99.90
37446;DHT22;23307;51.136;14.942;2023-02-01T00:26:19;5.40;99.90
37446;DHT22;23307;51.136;14.942;2023-02-01T00:28:45;5.40;99.90
37446;DHT22;23307;51.136;14.942;2023-02-01T00:31:11;5.40;99.90
37446;DHT22;23307;51.136;14.942;2023-02-01T00:33:36;5.40;99.90
37446;DHT22;23307;51.136;14.942;2023-02-01T00:36:04;5.40;99.90
37446;DHT22;23307;51.136;14.942;2023-02-01T00:38:31;5.40;99.90
37446;DHT22;23307;51.136;14.942;2023-02-01T00:41:12;5.40;99.90
37446;DHT22;23307;51.136;14.942;2023-02-01T00:43:38;5.40;99.90
37446;DHT22;23307;51.136;14.942;2023-02-01T00:46:05;5.30;99.90
37446;DHT22;23307;51.136;14.942;2023-02-01T00:48:30;5.30;99.90
37446;DHT22;23307;51.136;14.942;2023-02-01T00:51:05;5.20;99.90
37446;DHT22;23307;51.136;14.942;2023-02-01T00:53:31;5.20;99.90
37446;DHT22;23307;51.136;14.942;2023-02-01T00:55:57;5.20;99.90
37446;DHT22;23307;51.136;14.942;2023-02-01T00:58:23;5.20;99.90
37446;DHT22;23307;51.136;14.942;2023-02-01T01:01:07;5.20;99.90
37446;DHT22;23307;51.136;14.942;2023-02-01T01:03:34;5.20;99.90
37446;DHT22;23307;51.136;14.942;2023-02-01T01:06:02;5.20;99.90
37446;DHT22;23307;51.136;14.942;2023-02-01T01:08:28;5.20;99.90
37446;DHT22;23307;51.136;14.942;2023-02-01T01:10:54;5.20;99.90
37446;DHT22;23307;51.136;14.942;2023-02-01T01:13:20;5.20;99.90
37446;DHT22;23307;51.136;14.942;2023-02-01T01:15:45;5.20;99.90
37446;DHT22;23307;51.136;14.942;2023-02-01T01:18:11;5.20;99.90
37446;DHT22;23307;51.136;14.942;2023-02-01T01:20:38;5.20;99.90
37446;DHT22;23307;51.136;14.942;2023-02-01T01:23:05;5.20;99.90
37446;DHT22;23307;51.136;14.942;2023-02-01T01:25:30;5.10;99.90
37446;DHT22;23307;51.136;14.942;2023-02-01T01:27:56;5.10;99.90
37446;DHT22;23307;51.136;14.942;2023-02-01T01:30:22;5.10;99.90
37446;DHT22;23307;51.136;14.942;2023-02-01T01:32:47;5.10;99.90
37446;DHT22;23307;51.136;14.942;2023-02-01T01:35:13;5.10;99.90
37446;DHT22;23307;51.136;14.942;2023-02-01T01:37:38;5.10;99.90
37446;DHT22;23307;51.136;14.942;2023-02-01T01:40:05;5.10;99.90
37446;DHT22;23307;51.136;14.942;2023-02-01T01:42:39;5.10;99.90
37446;DHT22;23307;51.136;14.942;2023-02-01T01:47:43;5.10;99.90
37446;DHT22;23307;51.136;14.942;2023-02-01T01:50:13;5.10;99.90
37446;DHT22;23307;51.136;14.942;2023-02-01T01:52:41;5.10;99.90
37446;DHT22;23307;51.136;14.942;2023-02-01T01:55:07;5.10;99.90
37446;DHT22;23307;51.136;14.942;2023-02-01T01:57:38;5.10;99.90
37446;DHT22;23307;51.136;14.942;2023-02-01T02:00:07;5.10;99.90
37446;DHT22;23307;51.136;14.942;2023-02-01T02:02:33;5.10;99.90
37446;DHT22;23307;51.136;14.942;2023-02-01T02:04:59;5.10;99.90
37446;DHT22;23307;51.136;14.942;2023-02-01T02:07:31;5.20;99.90
37446;DHT22;23307;51.136;14.942;2023-02-01T02:09:57;5.20;99.90
37446;DHT22;23307;51.136;14.942;2023-02-01T02:12:23;5.20;99.90
37446;DHT22;23307;51.136;14.942;2023-02-01T02:14:49;5.20;99.90
37446;DHT22;23307;51.136;14.942;2023-02-01T02:17:18;5.20;99.90
37446;DHT22;23307;51.136;14.942;2023-02-01T02:20:11;5.20;99.90
37446;DHT22;23307;51.136;14.942;2023-02-01T02:25:41;5.20;99.90
37446;DHT22;23307;51.136;14.942;2023-02-01T02:37:40;5.20;99.90
37446;DHT22;23307;51.136;14.942;2023-02-01T02:40:15;5.20;99.90
37446;DHT22;23307;51.136;14.942;2023-02-01T02:45:38;5.20;99.90
37446;DHT22;23307;51.136;14.942;2023-02-01T02:48:35;5.20;99.90
37446;DHT22;23307;51.136;14.942;2023-02-01T02:51:07;5.20;99.90
37446;DHT22;23307;51.136;14.942;2023-02-01T02:54:05;5.20;99.90
37446;DHT22;23307;51.136;14.942;2023-02-01T02:56:51;5.20;99.90
37446;DHT22;23307;51.136;14.942;2023-02-01T02:59:38;5.20;99.90
37446;DHT22;23307;51.136;14.942;2023-02-01T03:02:25;5.20;99.90
37446;DHT22;23307;51.136;14.942;2023-02-01T03:05:10;5.20;99.90
37446;DHT22;23307;51.136;14.942;2023-02-01T03:10:37;5.20;99.90
37446;DHT22;23307;51.136;14.942;2023-02-01T03:13:10;5.20;99.90
37446;DHT22;23307;51.136;14.942;2023-02-01T03:15:41;5.20;99.90
37446;DHT22;23307;51.136;14.942;2023-02-01T03:18:42;5.20;99.90
37446;DHT22;23307;51.136;14.942;2023-02-01T03:21:45;5.30;99.90
37446;DHT22;23307;51.136;14.942;2023-02-01T03:24:08;5.30;99.90
37446;DHT22;23307;51.136;14.942;2023-02-01T03:26:37;5.30;99.90
37446;DHT22;23307;51.136;14.942;2023-02-01T03:29:29;5.30;99.90
37446;DHT22;23307;51.136;14.942;2023-02-01T03:31:57;5.30;99.90
37446;DHT22;23307;51.136;14.942;2023-02-01T03:34:23;5.30;99.90
37446;DHT22;23307;51.136;14.942;2023-02-01T03:36:52;5.40;99.90
37446;DHT22;23307;51.136;14.942;2023-02-01T03:39:32;5.40;99.90
37446;DHT22;23307;51.136;14.942;2023-02-01T03:42:05;5.40;99.90
37446;DHT22;23307;51.136;14.942;2023-02-01T03:44:41;5.30;99.90
37446;DHT22;23307;51.136;14.942;2023-02-01T03:47:17;5.30;99.90
37446;DHT22;23307;51.136;14.942;2023-02-01T03:49:49;5.30;99.90
37446;DHT22;23307;51.136;14.942;2023-02-01T03:52:23;5.30;99.90
37446;DHT22;23307;51.136;14.942;2023-02-01T03:54:51;5.20;99.90
37446;DHT22;23307;51.136;14.942;2023-02-01T03:57:22;5.20;99.90
37446;DHT22;23307;51.136;14.942;2023-02-01T03:59:49;5.20;99.90
37446;DHT22;23307;51.136;14.942;2023-02-01T04:02:15;5.20;99.90
37446;DHT22;23307;51.136;14.942;2023-02-01T04:04:40;5.20;99.90
37446;DHT22;23307;51.136;14.942;2023-02-01T04:07:06;5.20;99.90
37446;DHT22;23307;51.136;14.942;2023-02-01T04:09:31;5.20;99.90
37446;DHT22;23307;51.136;14.942;2023-02-01T04:11:57;5.20;99.90
37446;DHT22;23307;51.136;14.942;2023-02-01T04:14:22;5.20;99.90
37446;DHT22;23307;51.136;14.942;2023-02-01T04:16:48;5.20;99.90
37446;DHT22;23307;51.136;14.942;2023-02-01T04:19:13;5.20;99.90
37446;DHT22;23307;51.136;14.942;2023-02-01T04:21:39;5.20;99.90
37446;DHT22;23307;51.136;14.942;2023-02-01T04:24:05;5.20;99.90
37446;DHT22;23307;51.136;14.942;2023-02-01T04:26:30;5.20;99.90
37446;DHT22;23307;51.136;14.942;2023-02-01T04:28:56;5.30;99.90
37446;DHT22;23307;51.136;14.942;2023-02-01T04:31:21;5.30;99.90
37446;DHT22;23307;51.136;14.942;2023-02-01T04:33:51;5.30;99.90
37446;DHT22;23307;51.136;14.942;2023-02-01T04:36:18;5.30;99.90
37446;DHT22;23307;51.136;14.942;2023-02-01T04:38:46;5.30;99.90
37446;DHT22;23307;51.136;14.942;2023-02-01T04:41:12;5.30;99.90
37446;DHT22;23307;51.136;14.942;2023-02-01T04:43:37;5.40;99.90
37446;DHT22;23307;51.136;14.942;2023-02-01T04:46:03;5.40;99.90
37446;DHT22;23307;51.136;14.942;2023-02-01T04:48:30;5.40;99.90
37446;DHT22;23307;51.136;14.942;2023-02-01T04:50:55;5.30;99.90
37446;DHT22;23307;51.136;14.942;2023-02-01T04:53:21;5.30;99.90
37446;DHT22;23307;51.136;14.942;2023-02-01T04:55:48;5.30;99.90
37446;DHT22;23307;51.136;14.942;2023-02-01T04:58:13;5.30;99.90
37446;DHT22;23307;51.136;14.942;2023-02-01T05:00:39;5.40;99.90
37446;DHT22;23307;51.136;14.942;2023-02-01T05:03:04;5.40;99.90
37446;DHT22;23307;51.136;14.942;2023-02-01T05:05:30;5.40;99.90
37446;DHT22;23307;51.136;14.942;2023-02-01T05:07:55;5.40;99.90
37446;DHT22;23307;51.136;14.942;2023-02-01T05:10:21;5.40;99.90
37446;DHT22;23307;51.136;14.942;2023-02-01T05:12:47;5.40;99.90
37446;DHT22;23307;51.136;14.942;2023-02-01T05:15:32;5.40;99.90
37446;DHT22;23307;51.136;14.942;2023-02-01T05:17:58;5.50;99.90
37446;DHT22;23307;51.136;14.942;2023-02-01T05:20:24;5.40;99.90
37446;DHT22;23307;51.136;14.942;2023-02-01T05:22:49;5.40;99.90
37446;DHT22;23307;51.136;14.942;2023-02-01T05:25:15;5.40;99.90
37446;DHT22;23307;51.136;14.942;2023-02-01T05:27:41;5.40;99.90
37446;DHT22;23307;51.136;14.942;2023-02-01T05:30:07;5.40;99.90
37446;DHT22;23307;51.136;14.942;2023-02-01T05:32:33;5.50;99.90
37446;DHT22;23307;51.136;14.942;2023-02-01T05:34:59;5.50;99.90
37446;DHT22;23307;51.136;14.942;2023-02-01T05:37:25;5.50;99.90
37446;DHT22;23307;51.136;14.942;2023-02-01T05:39:50;5.50;99.90
37446;DHT22;23307;51.136;14.942;2023-02-01T05:42:15;5.50;99.90
37446;DHT22;23307;51.136;14.942;2023-02-01T05:44:41;5.50;99.90
37446;DHT22;23307;51.136;14.942;2023-02-01T05:47:07;5.50;99.90
37446;DHT22;23307;51.136;14.942;2023-02-01T05:49:32;5.50;99.90
37446;DHT22;23307;51.136;14.942;2023-02-01T05:51:58;5.50;99.90
37446;DHT22;23307;51.136;14.942;2023-02-01T05:54:23;5.40;99.90
37446;DHT22;23307;51.136;14.942;2023-02-01T05:56:49;5.50;99.90
37446;DHT22;23307;51.136;14.942;2023-02-01T05:59:14;5.50;99.90
37446;DHT22;23307;51.136;14.942;2023-02-01T06:01:39;5.50;99.90
37446;DHT22;23307;51.136;14.942;2023-02-01T06:04:05;5.50;99.90
37446;DHT22;23307;51.136;14.942;2023-02-01T06:06:31;5.40;99.90
37446;DHT22;23307;51.136;14.942;2023-02-01T06:08:56;5.40;99.90
37446;DHT22;23307;51.136;14.942;2023-02-01T06:11:22;5.40;99.90
37446;DHT22;23307;51.136;14.942;2023-02-01T06:13:47;5.40;99.90
37446;DHT22;23307;51.136;14.942;2023-02-01T06:16:13;5.40;99.90
37446;DHT22;23307;51.136;14.942;2023-02-01T06:18:41;5.40;99.90
37446;DHT22;23307;51.136;14.942;2023-02-01T06:21:07;5.40;99.90
37446;DHT22;23307;51.136;14.942;2023-02-01T06:23:33;5.40;99.90
37446;DHT22;23307;51.136;14.942;2023-02-01T06:26:01;5.40;99.90
37446;DHT22;23307;51.136;14.942;2023-02-01T06:28:29;5.40;99.90
37446;DHT22;23307;51.136;14.942;2023-02-01T06:30:54;5.50;99.90
37446;DHT22;23307;51.136;14.942;2023-02-01T06:33:20;5.50;99.90
37446;DHT22;23307;51.136;14.942;2023-02-01T06:35:45;5.50;99.90
37446;DHT22;23307;51.136;14.942;2023-02-01T06:38:12;5.50;99.90
37446;DHT22;23307;51.136;14.942;2023-02-01T06:40:38;5.50;99.90
37446;DHT22;23307;51.136;14.942;2023-02-01T06:43:04;5.50;99.90
37446;DHT22;23307;51.136;14.942;2023-02-01T06:45:30;5.50;99.90
37446;DHT22;23307;51.136;14.942;2023-02-01T06:47:55;5.50;99.90
37446;DHT22;23307;51.136;14.942;2023-02-01T06:50:21;5.50;99.90
37446;DHT22;23307;51.136;14.942;2023-02-01T06:52:46;5.40;99.90
37446;DHT22;23307;51.136;14.942;2023-02-01T06:55:12;5.40;99.90
37446;DHT22;23307;51.136;14.942;2023-02-01T06:57:38;5.30;99.90
37446;DHT22;23307;51.136;14.942;2023-02-01T07:00:04;5.20;99.90
37446;DHT22;23307;51.136;14.942;2023-02-01T07:02:30;5.20;99.90
37446;DHT22;23307;51.136;14.942;2023-02-01T07:04:56;5.20;99.90
37446;DHT22;23307;51.136;14.942;2023-02-01T07:07:21;5.10;99.90
37446;DHT22;23307;51.136;14.942;2023-02-01T07:09:48;5.10;99.90
37446;DHT22;23307;51.136;14.942;2023-02-01T07:12:14;5.00;99.90
37446;DHT22;23307;51.136;14.942;2023-02-01T07:14:40;5.00;99.90
37446;DHT22;23307;51.136;14.942;2023-02-01T07:17:05;5.10;99.90
37446;DHT22;23307;51.136;14.942;2023-02-01T07:19:31;5.10;99.90
37446;DHT22;23307;51.136;14.942;2023-02-01T07:21:56;5.00;99.90
37446;DHT22;23307;51.136;14.942;2023-02-01T07:24:22;4.90;99.90
37446;DHT22;23307;51.136;14.942;2023-02-01T07:26:47;4.90;99.90
37446;DHT22;23307;51.136;14.942;2023-02-01T07:29:14;4.90;99.90
37446;DHT22;23307;51.136;14.942;2023-02-01T07:31:39;4.90;99.90
37446;DHT22;23307;51.136;14.942;2023-02-01T07:34:05;4.80;99.90
37446;DHT22;23307;51.136;14.942;2023-02-01T07:36:30;4.80;99.90
37446;DHT22;23307;51.136;14.942;2023-02-01T07:38:57;4.80;99.90
37446;DHT22;23307;51.136;14.942;2023-02-01T07:41:22;4.70;99.90
37446;DHT22;23307;51.136;14.942;2023-02-01T07:43:48;4.70;99.90
37446;DHT22;23307;51.136;14.942;2023-02-01T07:46:16;4.60;99.90
37446;DHT22;23307;51.136;14.942;2023-02-01T07:48:41;4.60;99.90
37446;DHT22;23307;51.136;14.942;2023-02-01T07:51:12;4.60;99.90
37446;DHT22;23307;51.136;14.942;2023-02-01T07:53:38;4.60;99.90
37446;DHT22;23307;51.136;14.942;2023-02-01T07:56:16;4.60;99.90
37446;DHT22;23307;51.136;14.942;2023-02-01T07:58:42;4.60;99.90
37446;DHT22;23307;51.136;14.942;2023-02-01T08:01:24;4.60;99.90
37446;DHT22;23307;51.136;14.942;2023-02-01T08:03:55;4.60;99.90
37446;DHT22;23307;51.136;14.942;2023-02-01T08:06:22;4.70;99.90
37446;DHT22;23307;51.136;14.942;2023-02-01T08:08:49;4.70;99.90
37446;DHT22;23307;51.136;14.942;2023-02-01T08:11:15;4.70;99.90
37446;DHT22;23307;51.136;14.942;2023-02-01T08:13:41;4.70;99.90
37446;DHT22;23307;51.136;14.942;2023-02-01T08:16:09;4.80;99.90
37446;DHT22;23307;51.136;14.942;2023-02-01T08:18:36;4.80;99.90
37446;DHT22;23307;51.136;14.942;2023-02-01T08:21:08;4.80;99.90
37446;DHT22;23307;51.136;14.942;2023-02-01T08:23:35;4.80;99.90
37446;DHT22;23307;51.136;14.942;2023-02-01T08:26:16;4.80;99.90
37446;DHT22;23307;51.136;14.942;2023-02-01T08:28:45;4.80;99.90
37446;DHT22;23307;51.136;14.942;2023-02-01T08:31:13;4.80;99.90
37446;DHT22;23307;51.136;14.942;2023-02-01T08:33:43;4.80;99.90
37446;DHT22;23307;51.136;14.942;2023-02-01T08:36:10;4.80;99.90
37446;DHT22;23307;51.136;14.942;2023-02-01T08:38:37;4.80;99.90
37446;DHT22;23307;51.136;14.942;2023-02-01T08:41:13;4.80;99.90
37446;DHT22;23307;51.136;14.942;2023-02-01T08:43:38;4.80;99.90
37446;DHT22;23307;51.136;14.942;2023-02-01T08:46:05;4.80;99.90
37446;DHT22;23307;51.136;14.942;2023-02-01T08:48:31;4.80;99.90
37446;DHT22;23307;51.136;14.942;2023-02-01T08:50:57;4.80;99.90
37446;DHT22;23307;51.136;14.942;2023-02-01T08:53:23;4.90;99.90
37446;DHT22;23307;51.136;14.942;2023-02-01T08:55:48;4.90;99.90
37446;DHT22;23307;51.136;14.942;2023-02-01T08:58:14;4.90;99.90
37446;DHT22;23307;51.136;14.942;2023-02-01T09:00:42;4.90;99.90
37446;DHT22;23307;51.136;14.942;2023-02-01T09:03:10;4.90;99.90
37446;DHT22;23307;51.136;14.942;2023-02-01T09:05:36;5.00;99.90
37446;DHT22;23307;51.136;14.942;2023-02-01T09:08:01;5.00;99.90
37446;DHT22;23307;51.136;14.942;2023-02-01T09:10:27;5.00;99.90
37446;DHT22;23307;51.136;14.942;2023-02-01T09:12:52;5.00;99.90
37446;DHT22;23307;51.136;14.942;2023-02-01T09:15:18;5.00;99.90
37446;DHT22;23307;51.136;14.942;2023-02-01T09:17:43;5.10;99.90
37446;DHT22;23307;51.136;14.942;2023-02-01T09:20:09;5.10;99.90
37446;DHT22;23307;51.136;14.942;2023-02-01T09:22:35;5.10;99.90
37446;DHT22;23307;51.136;14.942;2023-02-01T09:25:00;5.10;99.90
37446;DHT22;23307;51.136;14.942;2023-02-01T09:27:26;5.10;99.90
37446;DHT22;23307;51.136;14.942;2023-02-01T09:29:52;5.00;99.90
37446;DHT22;23307;51.136;14.942;2023-02-01T09:32:22;5.00;99.90
37446;DHT22;23307;51.136;14.942;2023-02-01T09:34:49;5.00;99.90
37446;DHT22;23307;51.136;14.942;2023-02-01T09:37:14;5.00;99.90
37446;DHT22;23307;51.136;14.942;2023-02-01T09:39:40;5.00;99.90
37446;DHT22;23307;51.136;14.942;2023-02-01T09:45:14;5.10;99.90
37446;DHT22;23307;51.136;14.942;2023-02-01T09:47:49;5.20;99.90
37446;DHT22;23307;51.136;14.942;2023-02-01T09:50:18;5.30;99.90
37446;DHT22;23307;51.136;14.942;2023-02-01T09:52:55;5.50;99.90
37446;DHT22;23307;51.136;14.942;2023-02-01T09:55:45;5.70;99.90
37446;DHT22;23307;51.136;14.942;2023-02-01T09:58:32;5.90;99.90
37446;DHT22;23307;51.136;14.942;2023-02-01T10:01:01;5.90;99.90
37446;DHT22;23307;51.136;14.942;2023-02-01T10:03:32;5.90;99.90
37446;DHT22;23307;51.136;14.942;2023-02-01T10:11:48;5.80;99.90
37446;DHT22;23307;51.136;14.942;2023-02-01T10:23:26;5.60;99.90
37446;DHT22;23307;51.136;14.942;2023-02-01T10:25:42;5.50;99.90
37446;DHT22;23307;51.136;14.942;2023-02-01T10:28:15;5.40;99.90
37446;DHT22;23307;51.136;14.942;2023-02-01T10:30:46;5.30;99.90
37446;DHT22;23307;51.136;14.942;2023-02-01T10:33:27;5.30;99.90
37446;DHT22;23307;51.136;14.942;2023-02-01T10:36:34;5.30;99.90
37446;DHT22;23307;51.136;14.942;2023-02-01T10:39:03;5.20;99.90
37446;DHT22;23307;51.136;14.942;2023-02-01T10:41:35;5.20;99.90
37446;DHT22;23307;51.136;14.942;2023-02-01T10:44:04;5.20;99.90
37446;DHT22;23307;51.136;14.942;2023-02-01T10:46:32;5.10;99.90
37446;DHT22;23307;51.136;14.942;2023-02-01T10:49:00;5.10;99.90
37446;DHT22;23307;51.136;14.942;2023-02-01T10:51:42;5.10;99.90
37446;DHT22;23307;51.136;14.942;2023-02-01T10:54:32;5.10;99.90
37446;DHT22;23307;51.136;14.942;2023-02-01T10:56:58;5.00;99.90
37446;DHT22;23307;51.136;14.942;2023-02-01T10:59:25;5.00;99.90
37446;DHT22;23307;51.136;14.942;2023-02-01T11:02:02;5.00;99.90
37446;DHT22;23307;51.136;14.942;2023-02-01T11:04:34;4.90;99.90
37446;DHT22;23307;51.136;14.942;2023-02-01T11:07:22;4.90;99.90
37446;DHT22;23307;51.136;14.942;2023-02-01T11:09:54;4.90;99.90
37446;DHT22;23307;51.136;14.942;2023-02-01T11:12:29;4.80;99.90
37446;DHT22;23307;51.136;14.942;2023-02-01T11:15:20;4.80;99.90
37446;DHT22;23307;51.136;14.942;2023-02-01T11:17:48;4.80;99.90
37446;DHT22;23307;51.136;14.942;2023-02-01T11:20:19;4.80;99.90
37446;DHT22;23307;51.136;14.942;2023-02-01T11:22:53;4.80;99.90
37446;DHT22;23307;51.136;14.942;2023-02-01T11:25:19;4.70;99.90
37446;DHT22;23307;51.136;14.942;2023-02-01T11:27:47;4.70;99.90
37446;DHT22;23307;51.136;14.942;2023-02-01T11:30:16;4.60;99.90
37446;DHT22;23307;51.136;14.942;2023-02-01T11:32:46;4.70;99.90
37446;DHT22;23307;51.136;14.942;2023-02-01T11:35:18;4.70;99.90
37446;DHT22;23307;51.136;14.942;2023-02-01T11:37:50;4.60;99.90
37446;DHT22;23307;51.136;14.942;2023-02-01T11:46:03;4.60;99.90
37446;DHT22;23307;51.136;14.942;2023-02-01T11:48:31;4.60;99.90
37446;DHT22;23307;51.136;14.942;2023-02-01T11:51:26;4.60;99.90
37446;DHT22;23307;51.136;14.942;2023-02-01T11:54:08;4.60;99.90
37446;DHT22;23307;51.136;14.942;2023-02-01T11:59:49;4.80;99.90
37446;DHT22;23307;51.136;14.942;2023-02-01T12:05:21;4.90;99.90
37446;DHT22;23307;51.136;14.942;2023-02-01T12:08:10;5.00;99.90
37446;DHT22;23307;51.136;14.942;2023-02-01T12:22:47;5.10;99.90
37446;DHT22;23307;51.136;14.942;2023-02-01T12:25:33;5.20;99.90
37446;DHT22;23307;51.136;14.942;2023-02-01T12:28:22;5.20;99.90
37446;DHT22;23307;51.136;14.942;2023-02-01T12:31:02;5.50;99.90
37446;DHT22;23307;51.136;14.942;2023-02-01T12:36:09;5.50;99.90
37446;DHT22;23307;51.136;14.942;2023-02-01T12:39:02;5.50;99.90
37446;DHT22;23307;51.136;14.942;2023-02-01T12:44:43;5.60;99.90
37446;DHT22;23307;51.136;14.942;2023-02-01T12:47:47;5.60;99.90
37446;DHT22;23307;51.136;14.942;2023-02-01T12:50:29;5.60;99.90
37446;DHT22;23307;51.136;14.942;2023-02-01T12:53:18;5.60;99.90
37446;DHT22;23307;51.136;14.942;2023-02-01T12:55:54;5.50;99.90
37446;DHT22;23307;51.136;14.942;2023-02-01T12:58:24;5.50;99.90
37446;DHT22;23307;51.136;14.942;2023-02-01T13:00:59;5.50;99.90
37446;DHT22;23307;51.136;14.942;2023-02-01T13:03:39;5.50;99.90
37446;DHT22;23307;51.136;14.942;2023-02-01T13:06:19;5.50;99.90
37446;DHT22;23307;51.136;14.942;2023-02-01T13:11:38;5.50;99.90
37446;DHT22;23307;51.136;14.942;2023-02-01T13:17:25;5.40;99.90
37446;DHT22;23307;51.136;14.942;2023-02-01T13:22:31;5.30;99.90
37446;DHT22;23307;51.136;14.942;2023-02-01T13:25:10;5.30;99.90
37446;DHT22;23307;51.136;14.942;2023-02-01T13:27:39;5.30;99.90
37446;DHT22;23307;51.136;14.942;2023-02-01T13:30:13;5.30;99.90
37446;DHT22;23307;51.136;14.942;2023-02-01T13:35:52;5.20;99.90
37446;DHT22;23307;51.136;14.942;2023-02-01T13:39:23;5.10;99.90
37446;DHT22;23307;51.136;14.942;2023-02-01T13:41:39;5.10;99.90
37446;DHT22;23307;51.136;14.942;2023-02-01T13:44:14;5.10;99.90
37446;DHT22;23307;51.136;14.942;2023-02-01T13:46:44;5.00;99.90
37446;DHT22;23307;51.136;14.942;2023-02-01T13:49:25;5.00;99.90
37446;DHT22;23307;51.136;14.942;2023-02-01T13:51:53;5.10;99.90
37446;DHT22;23307;51.136;14.942;2023-02-01T13:54:39;5.10;99.90
37446;DHT22;23307;51.136;14.942;2023-02-01T13:57:14;5.10;99.90
37446;DHT22;23307;51.136;14.942;2023-02-01T13:59:52;5.20;99.90
37446;DHT22;23307;51.136;14.942;2023-02-01T14:02:44;5.20;99.90
37446;DHT22;23307;51.136;14.942;2023-02-01T14:10:54;5.50;99.90
37446;DHT22;23307;51.136;14.942;2023-02-01T14:21:19;5.70;99.90
37446;DHT22;23307;51.136;14.942;2023-02-01T14:29:03;5.90;99.90
37446;DHT22;23307;51.136;14.942;2023-02-01T14:34:15;5.90;99.90
37446;DHT22;23307;51.136;14.942;2023-02-01T14:36:44;5.90;99.90
37446;DHT22;23307;51.136;14.942;2023-02-01T14:39:24;6.00;99.90
37446;DHT22;23307;51.136;14.942;2023-02-01T14:41:54;6.00;99.90
37446;DHT22;23307;51.136;14.942;2023-02-01T14:44:27;6.00;99.90
37446;DHT22;23307;51.136;14.942;2023-02-01T14:47:03;6.00;99.90
37446;DHT22;23307;51.136;14.942;2023-02-01T14:49:33;6.00;99.90
37446;DHT22;23307;51.136;14.942;2023-02-01T14:51:59;6.10;99.90
37446;DHT22;23307;51.136;14.942;2023-02-01T14:54:27;6.10;99.90
37446;DHT22;23307;51.136;14.942;2023-02-01T14:56:54;6.10;99.90
37446;DHT22;23307;51.136;14.942;2023-02-01T14:59:22;6.10;99.90
37446;DHT22;23307;51.136;14.942;2023-02-01T15:01:53;6.10;99.90
37446;DHT22;23307;51.136;14.942;2023-02-01T15:04:20;6.10;99.90
37446;DHT22;23307;51.136;14.942;2023-02-01T15:06:57;6.10;99.90
37446;DHT22;23307;51.136;14.942;2023-02-01T15:12:16;6.10;99.90
37446;DHT22;23307;51.136;14.942;2023-02-01T15:15:12;6.10;99.90
37446;DHT22;23307;51.136;14.942;2023-02-01T15:17:38;6.20;99.90
37446;DHT22;23307;51.136;14.942;2023-02-01T15:20:13;6.20;99.90
37446;DHT22;23307;51.136;14.942;2023-02-01T15:22:39;6.20;99.90
37446;DHT22;23307;51.136;14.942;2023-02-01T15:25:17;6.20;99.90
37446;DHT22;23307;51.136;14.942;2023-02-01T15:27:43;6.20;99.90
37446;DHT22;23307;51.136;14.942;2023-02-01T15:30:26;6.20;99.90
37446;DHT22;23307;51.136;14.942;2023-02-01T15:33:03;6.10;99.90
37446;DHT22;23307;51.136;14.942;2023-02-01T15:35:43;6.10;99.90
37446;DHT22;23307;51.136;14.942;2023-02-01T15:38:35;6.10;99.90
37446;DHT22;23307;51.136;14.942;2023-02-01T15:41:21;6.00;99.90
37446;DHT22;23307;51.136;14.942;2023-02-01T15:46:38;5.90;99.90
37446;DHT22;23307;51.136;14.942;2023-02-01T15:49:11;5.90;99.90
37446;DHT22;23307;51.136;14.942;2023-02-01T15:51:44;5.80;99.90
37446;DHT22;23307;51.136;14.942;2023-02-01T15:54:45;5.90;99.90
37446;DHT22;23307;51.136;14.942;2023-02-01T15:57:26;5.80;99.90
37446;DHT22;23307;51.136;14.942;2023-02-01T16:00:00;5.80;99.90
37446;DHT22;23307;51.136;14.942;2023-02-01T16:02:44;5.80;99.90
37446;DHT22;23307;51.136;14.942;2023-02-01T16:05:42;5.90;99.90
37446;DHT22;23307;51.136;14.942;2023-02-01T16:08:20;5.90;99.90
37446;DHT22;23307;51.136;14.942;2023-02-01T16:10:49;5.90;99.90
37446;DHT22;23307;51.136;14.942;2023-02-01T16:13:16;5.90;99.90
37446;DHT22;23307;51.136;14.942;2023-02-01T16:15:42;5.80;99.90
37446;DHT22;23307;51.136;14.942;2023-02-01T16:18:08;5.80;99.90
37446;DHT22;23307;51.136;14.942;2023-02-01T16:20:35;5.80;99.90
37446;DHT22;23307;51.136;14.942;2023-02-01T16:23:02;5.80;99.90
37446;DHT22;23307;51.136;14.942;2023-02-01T16:25:28;5.80;99.90
37446;DHT22;23307;51.136;14.942;2023-02-01T16:27:54;5.70;99.90
37446;DHT22;23307;51.136;14.942;2023-02-01T16:30:20;5.70;99.90
37446;DHT22;23307;51.136;14.942;2023-02-01T16:32:49;5.60;99.90
37446;DHT22;23307;51.136;14.942;2023-02-01T16:35:31;5.50;99.90
37446;DHT22;23307;51.136;14.942;2023-02-01T16:38:01;5.50;99.90
37446;DHT22;23307;51.136;14.942;2023-02-01T16:40:27;5.40;99.90
37446;DHT22;23307;51.136;14.942;2023-02-01T16:42:53;5.40;99.90
37446;DHT22;23307;51.136;14.942;2023-02-01T16:45:20;5.40;99.90
37446;DHT22;23307;51.136;14.942;2023-02-01T16:47:50;5.40;99.90
37446;DHT22;23307;51.136;14.942;2023-02-01T16:50:20;5.40;99.90
37446;DHT22;23307;51.136;14.942;2023-02-01T16:52:46;5.40;99.90
37446;DHT22;23307;51.136;14.942;2023-02-01T16:55:13;5.40;99.90
37446;DHT22;23307;51.136;14.942;2023-02-01T16:57:41;5.40;99.90
37446;DHT22;23307;51.136;14.942;2023-02-01T17:00:08;5.30;99.90
37446;DHT22;23307;51.136;14.942;2023-02-01T17:02:34;5.30;99.90
37446;DHT22;23307;51.136;14.942;2023-02-01T17:04:59;5.30;99.90
37446;DHT22;23307;51.136;14.942;2023-02-01T17:07:25;5.30;99.90
37446;DHT22;23307;51.136;14.942;2023-02-01T17:09:52;5.20;99.90
37446;DHT22;23307;51.136;14.942;2023-02-01T17:12:26;5.20;99.90
37446;DHT22;23307;51.136;14.942;2023-02-01T17:14:52;5.30;99.90
37446;DHT22;23307;51.136;14.942;2023-02-01T17:17:19;5.20;99.90
37446;DHT22;23307;51.136;14.942;2023-02-01T17:19:48;5.20;99.90
37446;DHT22;23307;51.136;14.942;2023-02-01T17:22:17;5.20;99.90
37446;DHT22;23307;51.136;14.942;2023-02-01T17:24:43;5.20;99.90
37446;DHT22;23307;51.136;14.942;2023-02-01T17:27:09;5.10;99.90
37446;DHT22;23307;51.136;14.942;2023-02-01T17:29:35;5.10;99.90
37446;DHT22;23307;51.136;14.942;2023-02-01T17:32:00;5.10;99.90
37446;DHT22;23307;51.136;14.942;2023-02-01T17:34:27;5.00;99.90
37446;DHT22;23307;51.136;14.942;2023-02-01T17:36:52;5.00;99.90
37446;DHT22;23307;51.136;14.942;2023-02-01T17:39:18;5.00;99.90